createdAt,value
2022-11-15T00:00:05.404Z,51.10
2022-11-15T00:01:57.560Z,47.53
2022-11-15T00:03:53.305Z,51.17
2022-11-15T00:05:45.241Z,51.17
2022-11-15T00:07:55.218Z,51.50
2022-11-15T00:09:47.858Z,51.83
2022-11-15T00:11:39.442Z,50.27
2022-11-15T00:13:32.563Z,52.73
2022-11-15T00:15:25.969Z,50.83
2022-11-15T00:17:17.668Z,51.87
2022-11-15T00:19:09.134Z,51.50
2022-11-15T00:21:07.414Z,50.43
2022-11-15T00:22:59.021Z,51.63
2022-11-15T00:24:50.583Z,50.47
2022-11-15T00:26:42.091Z,50.20
2022-11-15T00:28:33.704Z,50.80
2022-11-15T00:30:28.150Z,51.07
2022-11-15T00:32:19.487Z,51.67
2022-11-15T00:34:12.206Z,50.13
2022-11-15T00:36:05.681Z,52.40
2022-11-15T00:37:57.475Z,51.57
2022-11-15T00:39:48.903Z,53.17
2022-11-15T00:41:40.392Z,55.27
2022-11-15T00:43:32.218Z,53.87
2022-11-15T00:45:24.403Z,54.73
2022-11-15T00:47:17.400Z,54.40
2022-11-15T00:49:09.034Z,53.23
2022-11-15T00:51:00.549Z,51.90
2022-11-15T00:52:51.989Z,52.67
2022-11-15T00:54:44.021Z,51.63
2022-11-15T00:56:35.435Z,52.27
2022-11-15T00:58:26.926Z,53.30
2022-11-15T01:00:19.005Z,52.27
2022-11-15T01:02:10.876Z,52.60
2022-11-15T01:04:03.829Z,53.23
2022-11-15T01:05:55.383Z,53.30
2022-11-15T01:07:46.944Z,54.73
2022-11-15T01:09:38.392Z,49.43
2022-11-15T01:11:29.810Z,52.13
2022-11-15T01:13:21.396Z,54.30
2022-11-15T01:15:13.597Z,51.83
2022-11-15T01:17:05.382Z,55.10
2022-11-15T01:18:56.838Z,53.97
2022-11-15T01:20:49.603Z,55.73
2022-11-15T01:22:41.335Z,56.43
2022-11-15T01:24:33.541Z,57.60
2022-11-15T01:26:26.611Z,58.10
2022-11-15T01:28:17.895Z,58.70
2022-11-15T01:30:10.428Z,58.20
2022-11-15T01:32:02.159Z,57.47
2022-11-15T01:33:53.681Z,56.43
2022-11-15T01:35:45.039Z,55.10
2022-11-15T01:37:37.980Z,54.50
2022-11-15T01:39:29.877Z,55.17
2022-11-15T01:41:23.127Z,54.43
2022-11-15T01:43:25.823Z,53.67
2022-11-15T01:45:18.577Z,51.73
2022-11-15T01:47:13.837Z,52.47
2022-11-15T01:49:13.583Z,51.60
2022-11-15T01:51:11.250Z,51.83
2022-11-15T01:53:04.386Z,51.07
2022-11-15T01:55:01.915Z,48.20
2022-11-15T01:56:56.567Z,50.57
2022-11-15T01:58:48.548Z,50.20
2022-11-15T02:00:40.215Z,49.37
2022-11-15T02:02:32.259Z,49.57
2022-11-15T02:04:26.725Z,49.70
2022-11-15T02:06:18.272Z,48.93
2022-11-15T02:08:20.799Z,48.53
2022-11-15T02:10:15.979Z,48.40
2022-11-15T02:12:09.263Z,48.40
2022-11-15T02:14:03.151Z,48.60
2022-11-15T02:16:03.332Z,50.47
2022-11-15T02:18:09.426Z,47.03
2022-11-15T02:20:45.502Z,49.07
2022-11-15T02:22:53.705Z,46.67
2022-11-15T02:25:10.186Z,47.20
2022-11-15T02:27:46.608Z,47.10
2022-11-15T02:30:01.323Z,46.97
2022-11-15T02:32:01.731Z,43.97
2022-11-15T02:34:01.396Z,46.87
2022-11-15T02:35:59.717Z,45.73
2022-11-15T02:37:58.286Z,45.90
2022-11-15T02:39:56.601Z,46.27
2022-11-15T02:41:54.308Z,46.20
2022-11-15T02:43:58.916Z,46.83
2022-11-15T02:45:56.226Z,47.10
2022-11-15T02:47:53.794Z,46.13
2022-11-15T02:49:49.303Z,47.10
2022-11-15T02:51:40.696Z,45.97
2022-11-15T02:53:32.222Z,46.97
2022-11-15T02:55:34.919Z,48.03
2022-11-15T02:57:38.016Z,47.23
2022-11-15T03:00:04.559Z,48.07
2022-11-15T03:02:10.799Z,44.50
2022-11-15T03:04:17.121Z,45.60
2022-11-15T03:06:21.880Z,46.07
2022-11-15T03:08:23.623Z,45.93
2022-11-15T03:10:23.036Z,43.87
2022-11-15T03:12:21.805Z,45.00
2022-11-15T03:14:22.670Z,44.37
2022-11-15T03:16:21.120Z,45.43
2022-11-15T03:18:19.991Z,45.73
2022-11-15T03:20:16.319Z,44.93
2022-11-15T03:22:11.777Z,45.23
2022-11-15T03:24:07.494Z,44.77
2022-11-15T03:26:00.383Z,43.47
2022-11-15T03:27:55.185Z,45.17
2022-11-15T03:29:49.290Z,43.83
2022-11-15T03:31:50.499Z,44.10
2022-11-15T03:33:43.837Z,44.17
2022-11-15T03:35:42.289Z,43.87
2022-11-15T03:37:39.327Z,43.50
2022-11-15T03:39:31.669Z,43.17
2022-11-15T03:41:27.124Z,43.83
2022-11-15T03:43:27.118Z,45.23
2022-11-15T03:45:24.338Z,45.37
2022-11-15T03:47:21.944Z,46.23
2022-11-15T03:49:17.488Z,46.10
2022-11-15T03:51:10.674Z,44.00
2022-11-15T03:53:02.363Z,46.37
2022-11-15T03:54:57.017Z,44.83
2022-11-15T03:56:48.460Z,44.77
2022-11-15T03:58:39.846Z,45.23
2022-11-15T04:00:31.550Z,43.23
2022-11-15T04:02:22.880Z,44.63
2022-11-15T04:04:14.412Z,42.70
2022-11-15T04:06:06.344Z,44.33
2022-11-15T04:07:59.193Z,45.67
2022-11-15T04:10:06.460Z,43.53
2022-11-15T04:11:58.221Z,44.63
2022-11-15T04:13:49.709Z,43.17
2022-11-15T04:15:41.041Z,43.23
2022-11-15T04:17:31.532Z,42.73
2022-11-15T04:19:40.425Z,44.77
2022-11-15T04:21:49.353Z,43.33
2022-11-15T04:24:00.157Z,44.93
2022-11-15T04:25:52.667Z,45.97
2022-11-15T04:27:44.249Z,44.77
2022-11-15T04:29:37.757Z,44.87
2022-11-15T04:31:29.522Z,43.93
2022-11-15T04:33:21.699Z,46.10
2022-11-15T04:35:13.821Z,44.57
2022-11-15T04:37:13.269Z,44.80
2022-11-15T04:39:06.761Z,45.73
2022-11-15T04:40:58.266Z,45.87
2022-11-15T04:42:49.839Z,43.67
2022-11-15T04:44:41.496Z,44.27
2022-11-15T04:46:33.258Z,44.10
2022-11-15T04:48:24.969Z,45.13
2022-11-15T04:50:17.995Z,42.40
2022-11-15T04:52:09.691Z,42.70
2022-11-15T04:54:01.237Z,43.13
2022-11-15T04:55:54.070Z,42.20
2022-11-15T04:57:45.721Z,42.57
2022-11-15T04:59:37.356Z,42.40
2022-11-15T05:01:28.991Z,44.13
2022-11-15T05:03:38.194Z,42.60
2022-11-15T05:05:29.946Z,42.23
2022-11-15T05:07:21.414Z,43.07
2022-11-15T05:09:13.972Z,40.63
2022-11-15T05:11:07.232Z,41.43
2022-11-15T05:12:58.910Z,42.73
2022-11-15T05:14:50.612Z,44.17
2022-11-15T05:16:42.397Z,41.33
2022-11-15T05:18:33.762Z,42.67
2022-11-15T05:20:25.194Z,41.90
2022-11-15T05:22:16.735Z,42.57
2022-11-15T05:24:08.844Z,41.30
2022-11-15T05:26:06.413Z,41.53
2022-11-15T05:28:01.765Z,41.33
2022-11-15T05:29:53.478Z,41.23
2022-11-15T05:31:44.859Z,42.87
2022-11-15T05:33:37.391Z,44.57
2022-11-15T05:35:33.760Z,44.47
2022-11-15T05:37:25.105Z,43.07
2022-11-15T05:39:16.741Z,43.83
2022-11-15T05:41:08.631Z,45.00
2022-11-15T05:43:04.167Z,43.43
2022-11-15T05:44:55.824Z,44.63
2022-11-15T05:46:48.555Z,43.40
2022-11-15T05:48:43.841Z,45.13
2022-11-15T05:50:37.650Z,46.03
2022-11-15T05:52:33.538Z,45.20
2022-11-15T05:54:26.835Z,45.23
2022-11-15T05:56:18.515Z,44.60
2022-11-15T05:58:11.962Z,46.50
2022-11-15T06:00:05.005Z,48.30
2022-11-15T06:01:56.844Z,47.20
2022-11-15T06:03:48.419Z,46.90
2022-11-15T06:05:40.032Z,47.57
2022-11-15T06:07:31.935Z,46.07
2022-11-15T06:09:23.576Z,47.37
2022-11-15T06:11:15.110Z,45.53
2022-11-15T06:13:07.172Z,45.60
2022-11-15T06:15:00.257Z,44.47
2022-11-15T06:16:51.829Z,43.90
2022-11-15T06:18:43.293Z,44.23
2022-11-15T06:20:34.797Z,44.93
2022-11-15T06:22:26.313Z,44.03
2022-11-15T06:24:17.766Z,43.43
2022-11-15T06:26:09.201Z,43.63
2022-11-15T06:28:01.391Z,43.13
2022-11-15T06:29:52.736Z,43.80
2022-11-15T06:31:45.625Z,44.30
2022-11-15T06:33:37.238Z,44.70
2022-11-15T06:35:28.777Z,43.87
2022-11-15T06:37:20.669Z,43.57
2022-11-15T06:39:12.326Z,44.60
2022-11-15T06:41:05.209Z,43.93
2022-11-15T06:43:00.054Z,43.17
2022-11-15T06:44:51.937Z,42.97
2022-11-15T06:46:44.828Z,43.53
2022-11-15T06:48:37.056Z,44.60
2022-11-15T06:50:28.489Z,45.37
2022-11-15T06:52:20.542Z,42.90
2022-11-15T06:54:12.020Z,42.97
2022-11-15T06:56:04.249Z,43.63
2022-11-15T06:57:56.217Z,42.63
2022-11-15T06:59:47.888Z,42.70
2022-11-15T07:01:39.280Z,39.67
2022-11-15T07:03:32.507Z,39.67
2022-11-15T07:05:24.469Z,39.53
2022-11-15T07:07:16.058Z,38.60
2022-11-15T07:09:07.929Z,39.43
2022-11-15T07:11:01.484Z,38.63
2022-11-15T07:12:53.345Z,38.33
2022-11-15T07:14:45.114Z,36.97
2022-11-15T07:16:37.874Z,34.03
2022-11-15T07:18:31.270Z,34.83
2022-11-15T07:20:23.046Z,34.80
2022-11-15T07:22:14.410Z,34.77
2022-11-15T07:24:06.507Z,33.67
2022-11-15T07:26:00.089Z,32.77
2022-11-15T07:27:57.250Z,32.80
2022-11-15T07:29:48.892Z,32.30
2022-11-15T07:31:40.260Z,30.83
2022-11-15T07:33:33.629Z,32.63
2022-11-15T07:35:26.692Z,30.93
2022-11-15T07:37:18.840Z,31.23
2022-11-15T07:39:10.529Z,31.30
2022-11-15T07:41:03.534Z,32.07
2022-11-15T07:42:59.355Z,31.43
2022-11-15T07:44:50.888Z,31.00
2022-11-15T07:46:42.333Z,31.63
2022-11-15T07:48:43.933Z,30.07
2022-11-15T07:50:36.419Z,29.83
2022-11-15T07:52:27.667Z,29.47
2022-11-15T07:54:19.128Z,28.93
2022-11-15T07:56:11.137Z,28.97
2022-11-15T07:58:04.276Z,27.90
2022-11-15T07:59:56.162Z,27.53
2022-11-15T08:01:47.695Z,25.00
2022-11-15T08:03:41.014Z,24.97
2022-11-15T08:05:33.013Z,25.77
2022-11-15T08:07:25.103Z,25.47
2022-11-15T08:09:16.762Z,25.53
2022-11-15T08:11:08.205Z,24.07
2022-11-15T08:13:00.765Z,24.77
2022-11-15T08:14:52.402Z,24.47
2022-11-15T08:16:44.023Z,23.33
2022-11-15T08:18:35.531Z,23.57
2022-11-15T08:20:30.658Z,23.47
2022-11-15T08:22:22.242Z,22.97
2022-11-15T08:24:13.832Z,23.80
2022-11-15T08:26:06.230Z,22.07
2022-11-15T08:27:59.939Z,22.73
2022-11-15T08:29:56.787Z,22.77
2022-11-15T08:31:50.866Z,22.80
2022-11-15T08:33:42.496Z,23.37
2022-11-15T08:35:35.397Z,21.87
2022-11-15T08:37:26.708Z,23.50
2022-11-15T08:39:18.175Z,22.90
2022-11-15T08:41:13.335Z,22.80
2022-11-15T08:43:04.901Z,23.63
2022-11-15T08:44:56.767Z,23.93
2022-11-15T08:46:48.275Z,23.70
2022-11-15T08:48:39.703Z,22.23
2022-11-15T08:50:31.075Z,22.33
2022-11-15T08:52:23.864Z,23.23
2022-11-15T08:54:15.842Z,22.37
2022-11-15T08:56:09.945Z,22.23
2022-11-15T08:58:01.723Z,22.80
2022-11-15T08:59:53.231Z,23.87
2022-11-15T09:01:44.785Z,24.07
2022-11-15T09:03:36.690Z,24.63
2022-11-15T09:05:28.562Z,23.47
2022-11-15T09:07:20.180Z,24.13
2022-11-15T09:09:13.304Z,23.47
2022-11-15T09:11:05.821Z,23.57
2022-11-15T09:12:58.996Z,23.83
2022-11-15T09:14:51.325Z,23.83
2022-11-15T09:16:42.860Z,24.07
2022-11-15T09:18:34.769Z,24.13
2022-11-15T09:20:26.989Z,23.70
2022-11-15T09:22:19.015Z,23.63
2022-11-15T09:24:11.172Z,22.70
2022-11-15T09:26:05.544Z,23.17
2022-11-15T09:27:58.157Z,24.17
2022-11-15T09:29:49.518Z,23.37
2022-11-15T09:31:40.859Z,23.53
2022-11-15T09:33:33.131Z,22.93
2022-11-15T09:35:24.952Z,23.57
2022-11-15T09:37:16.567Z,22.93
2022-11-15T09:39:07.975Z,24.17
2022-11-15T09:41:19.215Z,22.73
2022-11-15T09:43:28.523Z,24.10
2022-11-15T09:45:25.700Z,23.97
2022-11-15T09:47:43.251Z,22.90
2022-11-15T09:49:32.867Z,23.80
2022-11-15T09:51:27.443Z,22.73
2022-11-15T09:53:00.908Z,22.57
2022-11-15T09:54:53.911Z,23.80
2022-11-15T09:56:32.554Z,22.90
2022-11-15T09:58:17.896Z,22.73
2022-11-15T10:00:23.737Z,22.07
2022-11-15T10:01:59.369Z,21.47
2022-11-15T10:03:36.303Z,22.17
2022-11-15T10:05:10.879Z,22.57
2022-11-15T10:06:47.595Z,21.73
2022-11-15T10:08:28.583Z,22.57
2022-11-15T10:10:06.381Z,21.33
2022-11-15T10:11:42.528Z,22.30
2022-11-15T10:13:16.795Z,22.43
2022-11-15T10:14:54.436Z,21.43
2022-11-15T10:16:37.366Z,21.97
2022-11-15T10:18:12.088Z,21.77
2022-11-15T10:19:50.528Z,22.07
2022-11-15T10:21:35.300Z,23.70
2022-11-15T10:23:09.403Z,21.90
2022-11-15T10:24:44.856Z,22.87
2022-11-15T10:26:19.131Z,21.63
2022-11-15T10:28:00.076Z,22.27
2022-11-15T10:29:33.106Z,21.47
2022-11-15T10:31:24.289Z,22.87
2022-11-15T10:32:57.342Z,21.90
2022-11-15T10:34:30.387Z,21.27
2022-11-15T10:36:24.802Z,21.77
2022-11-15T10:38:08.447Z,21.67
2022-11-15T10:39:41.713Z,21.80
2022-11-15T10:41:14.709Z,20.47
2022-11-15T10:42:48.063Z,20.73
2022-11-15T10:44:28.503Z,20.60
2022-11-15T10:46:45.172Z,21.27
2022-11-15T10:48:25.656Z,20.77
2022-11-15T10:50:04.902Z,21.57
2022-11-15T10:51:43.838Z,21.40
2022-11-15T10:53:22.817Z,20.97
2022-11-15T10:54:59.875Z,20.83
2022-11-15T10:56:32.977Z,20.93
2022-11-15T10:58:08.019Z,20.40
2022-11-15T10:59:47.882Z,21.13
2022-11-15T11:01:24.165Z,19.90
2022-11-15T11:03:02.080Z,20.77
2022-11-15T11:04:52.194Z,19.77
2022-11-15T11:06:25.249Z,20.33
2022-11-15T11:08:00.396Z,19.53
2022-11-15T11:09:36.449Z,19.03
2022-11-15T11:11:11.181Z,20.50
2022-11-15T11:12:44.225Z,19.50
2022-11-15T11:14:24.057Z,20.57
2022-11-15T11:16:23.766Z,20.30
2022-11-15T11:18:06.482Z,19.30
2022-11-15T11:20:02.646Z,20.10
2022-11-15T11:21:45.797Z,19.47
2022-11-15T11:23:34.637Z,20.43
2022-11-15T11:25:20.703Z,20.10
2022-11-15T11:27:08.656Z,20.23
2022-11-15T11:28:50.634Z,20.73
2022-11-15T11:30:30.733Z,21.07
2022-11-15T11:32:25.047Z,20.33
2022-11-15T11:34:06.029Z,19.50
2022-11-15T11:35:48.151Z,20.90
2022-11-15T11:37:28.449Z,21.40
2022-11-15T11:39:19.112Z,20.43
2022-11-15T11:41:02.486Z,19.60
2022-11-15T11:42:46.051Z,21.00
2022-11-15T11:44:32.663Z,20.83
2022-11-15T11:46:24.659Z,19.13
2022-11-15T11:48:12.685Z,21.37
2022-11-15T11:49:51.479Z,20.20
2022-11-15T11:51:31.338Z,20.37
2022-11-15T11:53:10.458Z,20.50
2022-11-15T11:54:52.311Z,20.40
2022-11-15T11:56:29.858Z,20.70
2022-11-15T11:58:12.153Z,19.17
2022-11-15T11:59:50.327Z,21.20
2022-11-15T12:01:26.977Z,20.60
2022-11-15T12:03:11.372Z,19.73
2022-11-15T12:04:47.498Z,19.53
2022-11-15T12:06:28.723Z,19.93
2022-11-15T12:08:11.354Z,20.03
2022-11-15T12:09:51.276Z,20.37
2022-11-15T12:11:30.367Z,20.60
2022-11-15T12:13:09.142Z,20.27
2022-11-15T12:14:47.868Z,20.20
2022-11-15T12:16:24.623Z,19.40
2022-11-15T12:17:58.673Z,21.17
2022-11-15T12:19:33.307Z,20.43
2022-11-15T12:21:10.190Z,19.50
2022-11-15T12:22:48.926Z,20.53
2022-11-15T12:24:26.578Z,20.33
2022-11-15T12:26:03.397Z,20.73
2022-11-15T12:27:41.231Z,20.37
2022-11-15T12:29:21.148Z,20.60
2022-11-15T12:31:03.150Z,20.07
2022-11-15T12:32:38.634Z,20.83
2022-11-15T12:34:39.984Z,20.17
2022-11-15T12:36:31.716Z,21.10
2022-11-15T12:38:05.404Z,20.93
2022-11-15T12:40:07.126Z,20.40
2022-11-15T12:41:41.491Z,20.77
2022-11-15T12:43:39.579Z,20.97
2022-11-15T12:45:28.349Z,20.70
2022-11-15T12:47:04.925Z,21.50
2022-11-15T12:48:59.795Z,20.73
2022-11-15T12:50:57.209Z,20.77
2022-11-15T12:52:30.256Z,20.80
2022-11-15T12:54:39.414Z,20.63
2022-11-15T12:56:24.714Z,21.07
2022-11-15T12:58:17.782Z,21.00
2022-11-15T12:59:52.607Z,20.50
2022-11-15T13:01:44.799Z,21.77
2022-11-15T13:03:25.376Z,21.20
2022-11-15T13:05:37.084Z,20.87
2022-11-15T13:07:49.636Z,21.67
2022-11-15T13:09:52.874Z,20.97
2022-11-15T13:11:45.716Z,21.27
2022-11-15T13:13:46.599Z,22.07
2022-11-15T13:15:57.302Z,21.53
2022-11-15T13:17:40.702Z,21.10
2022-11-15T13:19:13.790Z,21.63
2022-11-15T13:20:47.378Z,21.23
2022-11-15T13:22:37.979Z,21.30
2022-11-15T13:24:17.807Z,21.50
2022-11-15T13:26:14.201Z,21.50
2022-11-15T13:27:49.322Z,21.03
2022-11-15T13:29:23.849Z,19.57
2022-11-15T13:30:58.863Z,23.13
2022-11-15T13:32:32.680Z,21.13
2022-11-15T13:34:50.575Z,22.43
2022-11-15T13:36:24.581Z,22.87
2022-11-15T13:37:58.753Z,22.83
2022-11-15T13:39:33.789Z,23.13
2022-11-15T13:41:19.782Z,23.20
2022-11-15T13:42:53.286Z,22.23
2022-11-15T13:44:29.940Z,22.73
2022-11-15T13:46:12.922Z,23.03
2022-11-15T13:47:45.971Z,23.07
2022-11-15T13:49:19.311Z,22.83
2022-11-15T13:50:54.196Z,22.67
2022-11-15T13:52:33.369Z,22.57
2022-11-15T13:54:16.132Z,22.20
2022-11-15T13:55:49.364Z,22.83
2022-11-15T13:57:25.465Z,21.77
2022-11-15T13:58:58.633Z,22.77
2022-11-15T14:00:39.684Z,23.17
2022-11-15T14:02:15.809Z,21.83
2022-11-15T14:03:54.331Z,20.83
2022-11-15T14:05:27.440Z,22.03
2022-11-15T14:07:03.809Z,22.27
2022-11-15T14:08:37.538Z,23.20
2022-11-15T14:10:29.439Z,24.13
2022-11-15T14:12:04.764Z,23.57
2022-11-15T14:13:38.103Z,23.90
2022-11-15T14:15:27.817Z,23.93
2022-11-15T14:17:02.863Z,21.57
2022-11-15T14:18:45.658Z,21.87
2022-11-15T14:20:31.835Z,22.23
2022-11-15T14:22:16.768Z,22.90
2022-11-15T14:23:51.555Z,21.27
2022-11-15T14:25:25.807Z,21.17
2022-11-15T14:26:58.826Z,19.97
2022-11-15T14:28:37.562Z,21.80
2022-11-15T14:30:16.018Z,21.80
2022-11-15T14:31:49.101Z,22.10
2022-11-15T14:33:26.147Z,20.83
2022-11-15T14:35:01.094Z,19.87
2022-11-15T14:36:34.087Z,21.27
2022-11-15T14:38:07.459Z,21.00
2022-11-15T14:39:40.546Z,21.87
2022-11-15T14:41:21.068Z,21.03
2022-11-15T14:42:54.094Z,21.37
2022-11-15T14:44:27.125Z,21.07
2022-11-15T14:46:00.232Z,21.20
2022-11-15T14:47:33.255Z,22.20
2022-11-15T14:49:07.682Z,20.77
2022-11-15T14:50:40.877Z,21.80
2022-11-15T14:52:32.706Z,21.40
2022-11-15T14:54:06.575Z,19.97
2022-11-15T14:55:39.731Z,20.93
2022-11-15T14:57:12.769Z,21.27
2022-11-15T14:58:45.875Z,20.30
2022-11-15T15:00:19.339Z,21.03
2022-11-15T15:01:52.344Z,20.77
2022-11-15T15:03:25.362Z,22.37
2022-11-15T15:05:02.080Z,23.33
2022-11-15T15:06:35.171Z,21.60
2022-11-15T15:08:08.910Z,21.53
2022-11-15T15:09:42.544Z,21.70
2022-11-15T15:11:20.018Z,22.33
2022-11-15T15:12:53.059Z,20.90
2022-11-15T15:14:26.144Z,20.60
2022-11-15T15:15:59.175Z,20.87
2022-11-15T15:17:32.196Z,21.10
2022-11-15T15:19:05.233Z,20.83
2022-11-15T15:20:41.606Z,20.30
2022-11-15T15:22:17.371Z,21.43
2022-11-15T15:23:50.814Z,22.07
2022-11-15T15:25:28.867Z,21.90
2022-11-15T15:27:01.898Z,21.43
2022-11-15T15:28:36.303Z,21.87
2022-11-15T15:30:10.939Z,22.80
2022-11-15T15:31:44.076Z,23.63
2022-11-15T15:33:17.128Z,21.97
2022-11-15T15:34:50.135Z,22.73
2022-11-15T15:36:24.519Z,22.63
2022-11-15T15:37:57.592Z,22.37
2022-11-15T15:39:30.600Z,21.57
2022-11-15T15:41:04.525Z,22.63
2022-11-15T15:42:37.563Z,21.90
2022-11-15T15:44:10.598Z,23.23
2022-11-15T15:45:45.844Z,22.67
2022-11-15T15:47:23.608Z,22.73
2022-11-15T15:48:56.644Z,23.07
2022-11-15T15:50:31.237Z,23.00
2022-11-15T15:52:05.636Z,21.87
2022-11-15T15:53:38.688Z,22.73
2022-11-15T15:55:11.767Z,22.37
2022-11-15T15:56:44.830Z,22.20
2022-11-15T15:58:17.851Z,22.97
2022-11-15T15:59:50.872Z,22.57
2022-11-15T16:01:23.951Z,23.00
2022-11-15T16:02:57.249Z,22.90
2022-11-15T16:04:30.551Z,22.10
2022-11-15T16:06:05.234Z,22.90
2022-11-15T16:07:40.587Z,22.67
2022-11-15T16:09:17.155Z,22.10
2022-11-15T16:10:51.151Z,22.60
2022-11-15T16:12:24.208Z,22.80
2022-11-15T16:13:57.226Z,22.10
2022-11-15T16:15:33.805Z,21.93
2022-11-15T16:17:06.852Z,22.27
2022-11-15T16:18:39.858Z,21.23
2022-11-15T16:20:28.715Z,22.53
2022-11-15T16:22:01.837Z,21.67
2022-11-15T16:23:36.218Z,22.27
2022-11-15T16:25:10.127Z,22.30
2022-11-15T16:26:43.204Z,22.47
2022-11-15T16:28:21.709Z,22.67
2022-11-15T16:29:54.760Z,21.63
2022-11-15T16:31:27.788Z,22.50
2022-11-15T16:33:01.196Z,22.43
2022-11-15T16:34:39.617Z,22.23
2022-11-15T16:36:26.914Z,23.50
2022-11-15T16:38:02.775Z,22.27
2022-11-15T16:39:37.210Z,20.87
2022-11-15T16:41:10.279Z,22.83
2022-11-15T16:42:43.299Z,22.77
2022-11-15T16:44:16.846Z,22.37
2022-11-15T16:45:51.201Z,23.60
2022-11-15T16:47:24.235Z,23.53
2022-11-15T16:48:57.482Z,23.63
2022-11-15T16:50:32.851Z,24.50
2022-11-15T16:52:05.889Z,22.93
2022-11-15T16:53:39.216Z,23.30
2022-11-15T16:55:13.621Z,23.57
2022-11-15T16:56:47.884Z,23.63
2022-11-15T16:58:20.928Z,23.33
2022-11-15T16:59:53.964Z,22.60
2022-11-15T17:01:28.588Z,23.50
2022-11-15T17:03:03.331Z,24.00
2022-11-15T17:04:36.363Z,23.33
2022-11-15T17:06:11.306Z,23.87
2022-11-15T17:07:45.531Z,23.60
2022-11-15T17:09:20.442Z,23.60
2022-11-15T17:10:54.917Z,24.07
2022-11-15T17:12:28.636Z,23.37
2022-11-15T17:14:01.677Z,24.97
2022-11-15T17:15:34.744Z,24.00
2022-11-15T17:17:07.767Z,24.57
2022-11-15T17:18:42.241Z,24.70
2022-11-15T17:20:16.877Z,24.43
2022-11-15T17:21:50.565Z,24.93
2022-11-15T17:23:23.613Z,23.73
2022-11-15T17:24:56.626Z,23.80
2022-11-15T17:26:33.950Z,24.17
2022-11-15T17:28:08.435Z,24.70
2022-11-15T17:29:41.518Z,23.70
2022-11-15T17:31:16.006Z,24.60
2022-11-15T17:32:49.755Z,24.37
2022-11-15T17:34:22.959Z,24.93
2022-11-15T17:35:59.782Z,23.30
2022-11-15T17:37:32.829Z,23.17
2022-11-15T17:39:06.438Z,23.87
2022-11-15T17:40:39.455Z,24.37
2022-11-15T17:42:13.842Z,24.07
2022-11-15T17:43:46.964Z,22.37
2022-11-15T17:45:19.994Z,22.60
2022-11-15T17:46:53.136Z,23.80
2022-11-15T17:48:26.436Z,24.10
2022-11-15T17:49:59.662Z,22.83
2022-11-15T17:51:32.724Z,22.27
2022-11-15T17:53:05.754Z,22.20
2022-11-15T17:54:38.781Z,23.27
2022-11-15T17:56:13.204Z,24.03
2022-11-15T17:57:47.582Z,23.20
2022-11-15T17:59:21.745Z,22.63
2022-11-15T18:00:54.949Z,22.47
2022-11-15T18:02:28.037Z,23.10
2022-11-15T18:04:02.266Z,22.70
2022-11-15T18:05:35.306Z,23.23
2022-11-15T18:07:08.387Z,22.30
2022-11-15T18:08:44.209Z,22.50
2022-11-15T18:10:17.654Z,22.67
2022-11-15T18:11:51.730Z,22.87
2022-11-15T18:13:26.152Z,22.50
2022-11-15T18:15:00.069Z,23.60
2022-11-15T18:16:35.750Z,22.40
2022-11-15T18:18:08.862Z,22.17
2022-11-15T18:19:41.867Z,22.30
2022-11-15T18:21:16.327Z,22.43
2022-11-15T18:22:49.323Z,22.90
2022-11-15T18:24:22.504Z,22.57
2022-11-15T18:25:55.537Z,21.80
2022-11-15T18:27:28.563Z,21.73
2022-11-15T18:29:06.247Z,22.10
2022-11-15T18:30:41.222Z,22.70
2022-11-15T18:32:17.591Z,21.50
2022-11-15T18:33:51.814Z,21.67
2022-11-15T18:35:24.846Z,21.93
2022-11-15T18:36:57.870Z,22.90
2022-11-15T18:38:31.571Z,22.60
2022-11-15T18:40:05.343Z,21.80
2022-11-15T18:41:38.374Z,22.30
2022-11-15T18:43:11.409Z,21.93
2022-11-15T18:44:45.868Z,21.43
2022-11-15T18:46:20.392Z,23.27
2022-11-15T18:47:53.417Z,21.53
2022-11-15T18:49:26.812Z,22.87
2022-11-15T18:51:05.326Z,21.60
2022-11-15T18:52:38.610Z,20.97
2022-11-15T18:54:13.351Z,22.30
2022-11-15T18:55:46.423Z,21.50
2022-11-15T18:57:19.462Z,21.37
2022-11-15T18:58:54.459Z,22.70
2022-11-15T19:00:28.850Z,21.33
2022-11-15T19:02:01.859Z,22.93
2022-11-15T19:03:36.923Z,20.93
2022-11-15T19:05:10.380Z,23.13
2022-11-15T19:06:45.360Z,21.80
2022-11-15T19:08:18.358Z,21.43
2022-11-15T19:09:51.838Z,20.47
2022-11-15T19:11:28.624Z,21.17
2022-11-15T19:13:01.655Z,21.00
2022-11-15T19:14:34.683Z,20.47
2022-11-15T19:16:11.008Z,21.90
2022-11-15T19:17:44.081Z,20.83
2022-11-15T19:19:19.500Z,22.23
2022-11-15T19:20:52.618Z,20.93
2022-11-15T19:22:25.664Z,21.30
2022-11-15T19:23:59.513Z,20.80
2022-11-15T19:25:32.528Z,20.87
2022-11-15T19:27:05.610Z,19.40
2022-11-15T19:28:38.660Z,20.70
2022-11-15T19:30:12.650Z,20.90
2022-11-15T19:31:48.490Z,20.90
2022-11-15T19:33:27.588Z,20.67
2022-11-15T19:35:01.196Z,20.73
2022-11-15T19:36:35.774Z,19.90
2022-11-15T19:38:08.783Z,19.97
2022-11-15T19:39:41.827Z,20.53
2022-11-15T19:41:16.411Z,19.37
2022-11-15T19:42:49.447Z,20.63
2022-11-15T19:44:22.760Z,18.63
2022-11-15T19:45:59.534Z,18.43
2022-11-15T19:47:36.582Z,19.53
2022-11-15T19:49:11.026Z,19.70
2022-11-15T19:50:44.377Z,19.37
2022-11-15T19:52:17.390Z,19.73
2022-11-15T19:53:51.421Z,19.63
2022-11-15T19:55:24.502Z,19.30
2022-11-15T19:56:57.651Z,18.00
2022-11-15T19:58:30.773Z,19.20
2022-11-15T20:00:07.421Z,17.30
2022-11-15T20:01:42.031Z,18.40
2022-11-15T20:03:16.695Z,18.43
2022-11-15T20:04:49.747Z,18.07
2022-11-15T20:06:25.043Z,18.60
2022-11-15T20:07:58.048Z,17.47
2022-11-15T20:09:31.085Z,17.77
2022-11-15T20:11:05.656Z,16.20
2022-11-15T20:12:39.039Z,17.50
2022-11-15T20:14:13.160Z,17.13
2022-11-15T20:15:46.337Z,16.57
2022-11-15T20:17:19.366Z,17.73
2022-11-15T20:18:54.343Z,17.53
2022-11-15T20:20:27.378Z,17.53
2022-11-15T20:22:00.409Z,17.80
2022-11-15T20:23:33.508Z,18.60
2022-11-15T20:25:07.000Z,16.87
2022-11-15T20:26:40.069Z,17.63
2022-11-15T20:28:17.654Z,17.93
2022-11-15T20:29:51.858Z,17.80
2022-11-15T20:31:24.855Z,17.63
2022-11-15T20:32:58.065Z,18.73
2022-11-15T20:34:32.698Z,18.83
2022-11-15T20:36:06.595Z,17.90
2022-11-15T20:37:39.796Z,18.63
2022-11-15T20:39:12.876Z,17.80
2022-11-15T20:40:46.773Z,17.93
2022-11-15T20:42:19.815Z,19.23
2022-11-15T20:43:52.844Z,18.07
2022-11-15T20:45:25.922Z,17.83
2022-11-15T20:46:58.958Z,17.20
2022-11-15T20:48:32.455Z,17.53
2022-11-15T20:50:35.552Z,17.43
2022-11-15T20:52:01.080Z,18.17
2022-11-15T20:53:34.873Z,17.13
2022-11-15T20:55:08.761Z,17.10
2022-11-15T20:56:41.820Z,18.47
2022-11-15T20:58:15.548Z,17.63
2022-11-15T20:59:48.861Z,18.17
2022-11-15T21:01:24.372Z,18.60
2022-11-15T21:02:57.538Z,17.83
2022-11-15T21:04:30.606Z,18.30
2022-11-15T21:06:05.297Z,17.93
2022-11-15T21:07:38.492Z,17.03
2022-11-15T21:09:29.889Z,17.67
2022-11-15T21:11:20.200Z,17.87
2022-11-15T21:12:53.438Z,17.67
2022-11-15T21:14:26.544Z,16.17
2022-11-15T21:15:59.572Z,16.73
2022-11-15T21:17:32.603Z,17.20
2022-11-15T21:19:06.636Z,17.23
2022-11-15T21:20:39.755Z,17.77
2022-11-15T21:22:15.767Z,16.50
2022-11-15T21:23:48.842Z,15.70
2022-11-15T21:25:21.981Z,16.47
2022-11-15T21:26:55.575Z,16.10
2022-11-15T21:28:28.626Z,16.63
2022-11-15T21:30:01.639Z,16.63
2022-11-15T21:31:34.801Z,17.00
2022-11-15T21:33:07.812Z,16.27
2022-11-15T21:34:40.894Z,16.53
2022-11-15T21:36:13.922Z,15.50
2022-11-15T21:37:53.310Z,16.57
2022-11-15T21:39:29.333Z,15.93
2022-11-15T21:41:04.583Z,15.83
2022-11-15T21:42:37.686Z,16.57
2022-11-15T21:44:10.844Z,16.17
2022-11-15T21:45:43.998Z,17.23
2022-11-15T21:47:17.064Z,17.83
2022-11-15T21:48:50.113Z,16.37
2022-11-15T21:50:23.152Z,16.77
2022-11-15T21:51:56.162Z,17.03
2022-11-15T21:53:31.656Z,16.87
2022-11-15T21:55:04.983Z,16.60
2022-11-15T21:56:38.105Z,15.87
2022-11-15T21:58:11.128Z,16.67
2022-11-15T21:59:58.139Z,16.27
2022-11-15T22:01:48.494Z,15.93
2022-11-15T22:03:21.507Z,16.30
2022-11-15T22:04:54.512Z,15.70
2022-11-15T22:06:27.562Z,16.37
2022-11-15T22:08:00.607Z,16.03
2022-11-15T22:09:35.002Z,16.97
2022-11-15T22:11:08.052Z,16.57
2022-11-15T22:12:41.057Z,16.83
2022-11-15T22:14:14.118Z,16.87
2022-11-15T22:15:47.359Z,17.73
2022-11-15T22:17:20.552Z,17.70
2022-11-15T22:18:53.008Z,17.53